createdAt,value
2018-03-08T00:00:40.987Z,68.00
2018-03-08T00:03:09.194Z,73.80
2018-03-08T00:05:37.860Z,73.30
2018-03-08T00:08:05.957Z,73.07
2018-03-08T00:10:34.908Z,77.87
2018-03-08T00:13:03.780Z,70.43
2018-03-08T00:15:31.926Z,68.80
2018-03-08T00:18:00.062Z,74.37
2018-03-08T00:20:29.068Z,73.87
2018-03-08T00:22:57.239Z,74.90
2018-03-08T00:25:25.348Z,70.00
2018-03-08T00:27:53.562Z,70.67
2018-03-08T00:30:21.678Z,71.40
2018-03-08T00:32:49.903Z,67.67
2018-03-08T00:35:18.082Z,65.70
2018-03-08T00:37:46.270Z,72.10
2018-03-08T00:40:14.380Z,64.53
2018-03-08T00:42:42.555Z,70.53
2018-03-08T00:45:11.547Z,67.73
2018-03-08T00:47:39.670Z,71.90
2018-03-08T00:50:07.871Z,71.27
2018-03-08T00:52:36.028Z,68.77
2018-03-08T00:55:04.134Z,66.23
2018-03-08T00:57:32.261Z,61.57
2018-03-08T01:00:01.152Z,67.30
2018-03-08T01:02:30.009Z,62.07
2018-03-08T01:04:58.204Z,66.87
2018-03-08T01:07:26.362Z,67.13
2018-03-08T01:09:54.527Z,62.57
2018-03-08T01:12:22.707Z,64.70
2018-03-08T01:14:50.809Z,63.50
2018-03-08T01:17:18.935Z,69.37
2018-03-08T01:19:47.132Z,69.80
2018-03-08T01:22:27.463Z,69.30
2018-03-08T01:24:55.628Z,64.57
2018-03-08T01:27:24.500Z,65.13
2018-03-08T01:29:52.614Z,64.70
2018-03-08T01:32:20.758Z,67.63
2018-03-08T01:34:48.886Z,73.50
2018-03-08T01:37:17.015Z,69.10
2018-03-08T01:39:45.199Z,71.33
2018-03-08T01:42:13.630Z,75.40
2018-03-08T01:44:42.515Z,82.20
2018-03-08T01:47:27.842Z,79.20
2018-03-08T01:49:56.001Z,77.77
2018-03-08T01:52:24.095Z,73.13
2018-03-08T01:54:52.995Z,74.63
2018-03-08T01:57:21.877Z,70.17
2018-03-08T01:59:50.047Z,69.17
2018-03-08T02:02:18.153Z,67.50
2018-03-08T02:04:47.085Z,69.33
2018-03-08T02:07:15.215Z,63.40
2018-03-08T02:10:08.491Z,65.30
2018-03-08T02:12:36.624Z,73.93
2018-03-08T02:15:04.768Z,67.00
2018-03-08T02:17:34.180Z,63.00
2018-03-08T02:20:02.327Z,63.47
2018-03-08T02:22:30.516Z,63.27
2018-03-08T02:24:58.622Z,60.47
2018-03-08T02:27:26.735Z,64.20
2018-03-08T02:29:54.819Z,66.60
2018-03-08T02:32:22.941Z,65.73
2018-03-08T02:34:51.031Z,70.37
2018-03-08T02:37:29.318Z,69.33
2018-03-08T02:39:57.569Z,69.23
2018-03-08T02:42:26.403Z,71.10
2018-03-08T02:44:54.527Z,68.00
2018-03-08T02:47:22.648Z,70.93
2018-03-08T02:49:55.847Z,73.23
2018-03-08T02:52:23.965Z,72.10
2018-03-08T02:54:52.118Z,78.40
2018-03-08T02:57:20.269Z,78.77
2018-03-08T02:59:49.233Z,78.70
2018-03-08T03:02:17.331Z,74.17
2018-03-08T03:04:48.102Z,74.80
2018-03-08T03:07:16.223Z,77.23
2018-03-08T03:09:44.332Z,82.10
2018-03-08T03:12:12.424Z,80.33
2018-03-08T03:14:41.520Z,80.50
2018-03-08T03:17:09.739Z,82.30
2018-03-08T03:19:37.910Z,81.63
2018-03-08T03:22:06.846Z,82.10
2018-03-08T03:24:35.023Z,88.57
2018-03-08T03:27:14.679Z,87.07
2018-03-08T03:29:42.770Z,85.07
2018-03-08T03:32:10.936Z,89.40
2018-03-08T03:34:39.071Z,84.33
2018-03-08T03:37:07.173Z,88.60
2018-03-08T03:39:35.302Z,87.97
2018-03-08T03:42:03.409Z,79.80
2018-03-08T03:44:31.502Z,82.13
2018-03-08T03:46:59.801Z,81.97
2018-03-08T03:49:27.928Z,92.60
2018-03-08T03:51:56.783Z,92.23
2018-03-08T03:54:24.892Z,85.07
2018-03-08T03:57:10.396Z,91.97
2018-03-08T03:59:53.112Z,85.00
2018-03-08T04:02:21.275Z,89.80
2018-03-08T04:04:49.448Z,83.53
2018-03-08T04:07:17.579Z,95.73
2018-03-08T04:09:46.487Z,96.60
2018-03-08T04:12:15.415Z,98.83
2018-03-08T04:14:43.548Z,95.40
2018-03-08T04:17:11.650Z,99.93
2018-03-08T04:19:40.619Z,84.33
2018-03-08T04:22:08.720Z,90.23
2018-03-08T04:24:36.856Z,90.40
2018-03-08T04:27:05.019Z,96.10
2018-03-08T04:29:33.143Z,101.30
2018-03-08T04:32:01.305Z,91.40
2018-03-08T04:34:29.408Z,82.27
2018-03-08T04:36:57.599Z,93.70
2018-03-08T04:39:33.669Z,94.23
2018-03-08T04:42:01.827Z,104.53
2018-03-08T04:44:29.939Z,99.80
2018-03-08T04:46:58.074Z,110.27
2018-03-08T04:49:26.227Z,97.97
2018-03-08T04:54:49.140Z,103.17
2018-03-08T04:57:17.337Z,108.60
2018-03-08T04:59:46.010Z,105.97
2018-03-08T05:02:15.019Z,110.80
2018-03-08T05:04:46.172Z,105.00
2018-03-08T05:07:14.294Z,108.33
2018-03-08T05:09:43.169Z,107.90
2018-03-08T05:12:11.517Z,108.73
2018-03-08T05:14:42.933Z,112.37
2018-03-08T05:17:11.041Z,107.73
2018-03-08T05:19:40.884Z,110.63
2018-03-08T05:22:09.681Z,105.47
2018-03-08T05:24:37.741Z,108.40
2018-03-08T05:27:06.621Z,110.40
2018-03-08T05:29:38.887Z,107.83
2018-03-08T05:32:07.016Z,103.07
2018-03-08T05:34:36.960Z,107.87
2018-03-08T05:37:05.069Z,116.20
2018-03-08T05:39:33.159Z,105.07
2018-03-08T05:45:04.491Z,102.00
2018-03-08T05:47:32.654Z,93.87
2018-03-08T05:50:00.768Z,101.13
2018-03-08T05:52:30.551Z,86.93
2018-03-08T05:54:58.676Z,96.47
2018-03-08T05:57:26.828Z,90.37
2018-03-08T05:59:54.920Z,87.40
2018-03-08T06:02:23.275Z,98.33
2018-03-08T06:04:55.689Z,98.83
2018-03-08T06:07:23.880Z,97.10
2018-03-08T06:09:52.128Z,88.73
2018-03-08T06:12:20.304Z,91.37
2018-03-08T06:14:48.506Z,88.13
2018-03-08T06:17:16.649Z,83.20
2018-03-08T06:19:45.544Z,93.97
2018-03-08T06:22:13.666Z,95.80
2018-03-08T06:24:41.786Z,81.60
2018-03-08T06:27:10.203Z,94.77
2018-03-08T06:29:42.703Z,92.67
2018-03-08T06:32:11.559Z,94.17
2018-03-08T06:34:39.655Z,87.50
2018-03-08T06:37:07.840Z,95.43
2018-03-08T06:39:35.959Z,90.17
2018-03-08T06:42:04.065Z,94.57
2018-03-08T06:44:32.170Z,88.57
2018-03-08T06:47:01.276Z,94.70
2018-03-08T06:49:29.473Z,92.20
2018-03-08T06:51:57.586Z,88.87
2018-03-08T06:54:25.692Z,90.60
2018-03-08T06:56:54.572Z,84.50
2018-03-08T06:59:22.680Z,90.53
2018-03-08T07:01:56.198Z,89.00
2018-03-08T07:04:25.716Z,76.50
2018-03-08T07:06:53.794Z,84.60
2018-03-08T07:09:22.696Z,77.90
2018-03-08T07:11:50.813Z,68.20
2018-03-08T07:14:22.428Z,64.33
2018-03-08T07:16:50.523Z,64.20
2018-03-08T07:19:20.536Z,60.10
2018-03-08T07:21:48.626Z,62.60
2018-03-08T07:24:16.766Z,56.63
2018-03-08T07:26:44.872Z,45.87
2018-03-08T07:29:13.016Z,37.07
2018-03-08T07:31:50.420Z,37.97
2018-03-08T07:34:18.513Z,33.83
2018-03-08T07:36:46.625Z,32.33
2018-03-08T07:39:14.816Z,34.50
2018-03-08T07:41:42.956Z,36.80
2018-03-08T07:44:12.657Z,31.57
2018-03-08T07:46:41.949Z,32.03
2018-03-08T07:49:10.160Z,28.67
2018-03-08T07:51:39.046Z,29.60
2018-03-08T07:54:07.269Z,31.50
2018-03-08T07:56:35.517Z,33.53
2018-03-08T07:59:05.496Z,34.10
2018-03-08T08:01:33.736Z,26.50
2018-03-08T08:04:04.989Z,33.53
2018-03-08T08:06:45.511Z,24.57
2018-03-08T08:09:14.094Z,32.10
2018-03-08T08:11:42.292Z,31.80
2018-03-08T08:14:11.793Z,29.60
2018-03-08T08:16:39.985Z,27.67
2018-03-08T08:19:08.090Z,28.90
2018-03-08T08:21:36.171Z,29.10
2018-03-08T08:24:04.293Z,28.93
2018-03-08T08:26:32.416Z,29.40
2018-03-08T08:29:00.824Z,26.03
2018-03-08T08:31:29.016Z,27.63
2018-03-08T08:33:57.200Z,23.70
2018-03-08T08:36:26.040Z,24.10
2018-03-08T08:38:57.125Z,21.20
2018-03-08T08:41:25.538Z,28.97
2018-03-08T08:43:53.699Z,23.40
2018-03-08T08:46:21.902Z,27.23
2018-03-08T08:48:50.087Z,23.67
2018-03-08T08:51:18.223Z,22.10
2018-03-08T08:53:46.746Z,24.03
2018-03-08T08:56:15.834Z,23.20
2018-03-08T08:58:44.041Z,27.20
2018-03-08T09:01:12.772Z,28.37
2018-03-08T09:03:40.961Z,25.47
2018-03-08T09:06:09.741Z,22.63
2018-03-08T09:08:37.940Z,23.30
2018-03-08T09:11:06.610Z,23.20
2018-03-08T09:13:34.855Z,25.70
2018-03-08T09:16:02.959Z,26.60
2018-03-08T09:18:31.139Z,27.48
2018-03-08T09:20:59.814Z,23.87
2018-03-08T09:26:07.237Z,24.30
2018-03-08T09:28:43.352Z,23.13
2018-03-08T09:31:25.658Z,24.37
2018-03-08T09:33:53.957Z,18.10
2018-03-08T09:36:22.196Z,25.37
2018-03-08T09:38:50.553Z,28.87
2018-03-08T09:41:18.705Z,32.70
2018-03-08T09:43:46.890Z,27.00
2018-03-08T09:46:15.023Z,33.03
2018-03-08T09:48:43.497Z,26.17
2018-03-08T09:51:11.702Z,32.87
2018-03-08T09:53:39.916Z,30.20
2018-03-08T09:56:08.306Z,32.23
2018-03-08T09:58:36.449Z,30.47
2018-03-08T10:01:06.580Z,37.60
2018-03-08T10:03:34.947Z,34.37
2018-03-08T10:06:05.023Z,32.20
2018-03-08T10:08:34.219Z,33.60
2018-03-08T10:11:05.341Z,31.73
2018-03-08T10:13:34.559Z,31.20
2018-03-08T10:16:03.244Z,30.63
2018-03-08T10:18:31.434Z,31.80
2018-03-08T10:20:59.582Z,28.60
2018-03-08T10:23:27.736Z,28.57
2018-03-08T10:25:56.761Z,35.57
2018-03-08T10:28:24.869Z,31.47
2018-03-08T10:30:53.225Z,32.87
2018-03-08T10:33:22.570Z,23.90
2018-03-08T10:35:50.699Z,23.80
2018-03-08T10:38:18.831Z,26.37
2018-03-08T10:40:46.962Z,26.73
2018-03-08T10:43:16.016Z,23.37
2018-03-08T10:45:44.218Z,23.87
2018-03-08T10:48:12.539Z,22.00
2018-03-08T10:50:41.084Z,24.20
2018-03-08T10:53:09.594Z,23.93
2018-03-08T10:55:39.862Z,23.20
2018-03-08T10:58:08.881Z,19.40
2018-03-08T11:00:43.547Z,25.90
2018-03-08T11:03:12.590Z,24.27
2018-03-08T11:05:46.773Z,23.93
2018-03-08T11:08:14.939Z,23.93
2018-03-08T11:10:44.068Z,26.00
2018-03-08T11:13:12.390Z,23.23
2018-03-08T11:15:40.741Z,24.53
2018-03-08T11:18:10.975Z,21.70
2018-03-08T11:20:39.112Z,23.90
2018-03-08T11:23:07.394Z,26.67
2018-03-08T11:25:35.656Z,22.80
2018-03-08T11:28:04.979Z,25.50
2018-03-08T11:30:33.107Z,24.10
2018-03-08T11:33:01.368Z,23.90
2018-03-08T11:35:29.993Z,23.00
2018-03-08T11:37:58.712Z,23.57
2018-03-08T11:40:26.836Z,22.73
2018-03-08T11:42:55.354Z,23.33
2018-03-08T11:45:24.920Z,23.93
2018-03-08T11:47:54.206Z,22.13
2018-03-08T11:50:24.171Z,24.13
2018-03-08T11:52:53.472Z,23.17
2018-03-08T11:55:21.675Z,23.33
2018-03-08T11:57:49.873Z,22.10
2018-03-08T12:00:22.559Z,23.27
2018-03-08T12:02:51.658Z,23.10
2018-03-08T12:05:19.823Z,21.00
2018-03-08T12:07:48.757Z,19.37
2018-03-08T12:10:16.852Z,20.93
2018-03-08T12:12:45.058Z,24.37
2018-03-08T12:15:13.792Z,22.30
2018-03-08T12:17:42.997Z,24.23
2018-03-08T12:20:11.541Z,19.47
2018-03-08T12:22:40.494Z,20.67
2018-03-08T12:25:08.821Z,22.73
2018-03-08T12:27:37.748Z,20.57
2018-03-08T12:30:05.861Z,19.23
2018-03-08T12:32:35.307Z,17.03
2018-03-08T12:35:05.303Z,17.43
2018-03-08T12:37:33.483Z,18.97
2018-03-08T12:40:03.023Z,21.63
2018-03-08T12:42:31.224Z,19.00
2018-03-08T12:44:59.384Z,21.47
2018-03-08T12:47:28.660Z,18.07
2018-03-08T12:50:14.147Z,15.37
2018-03-08T12:52:42.684Z,16.90
2018-03-08T12:55:11.749Z,18.30
2018-03-08T12:57:42.678Z,17.93
2018-03-08T13:02:46.645Z,15.53
2018-03-08T13:05:15.263Z,14.57
2018-03-08T13:07:43.492Z,16.37
2018-03-08T13:10:11.681Z,19.00
2018-03-08T13:12:39.996Z,14.47
2018-03-08T13:15:08.722Z,15.67
2018-03-08T13:17:41.569Z,14.03
2018-03-08T13:22:58.711Z,15.80
2018-03-08T13:25:28.668Z,11.47
2018-03-08T13:30:48.228Z,10.90
2018-03-08T13:33:18.244Z,9.87
2018-03-08T13:35:48.190Z,10.00
2018-03-08T13:38:16.996Z,10.80
2018-03-08T13:40:46.407Z,9.80
2018-03-08T13:43:16.864Z,10.73
2018-03-08T13:45:45.661Z,9.43
2018-03-08T13:54:36.386Z,11.70
2018-03-08T13:57:04.513Z,10.07
2018-03-08T13:59:33.590Z,9.07
2018-03-08T14:02:13.291Z,8.00
2018-03-08T14:04:42.584Z,12.63
2018-03-08T14:07:10.955Z,10.07
2018-03-08T14:09:45.046Z,9.27
2018-03-08T14:12:13.301Z,8.93
2018-03-08T14:14:43.883Z,10.23
2018-03-08T14:19:46.356Z,9.20
2018-03-08T14:22:14.653Z,8.53
2018-03-08T14:24:43.791Z,8.00
2018-03-08T14:27:12.295Z,10.47
2018-03-08T14:29:40.920Z,8.47
2018-03-08T14:32:14.705Z,10.70
2018-03-08T14:34:42.904Z,7.87
2018-03-08T14:42:36.685Z,9.10
2018-03-08T14:45:04.920Z,10.50
2018-03-08T14:47:34.758Z,7.67
2018-03-08T14:50:14.127Z,7.63
2018-03-08T14:55:44.127Z,5.90
2018-03-08T14:58:13.189Z,7.67
2018-03-08T15:00:41.377Z,5.67
2018-03-08T15:03:09.516Z,5.47
2018-03-08T15:05:38.019Z,5.10
2018-03-08T15:08:06.517Z,5.47
2018-03-08T15:10:34.757Z,6.20
2018-03-08T15:13:11.442Z,5.20
2018-03-08T15:15:40.516Z,6.03
2018-03-08T15:18:20.038Z,5.57
2018-03-08T15:23:48.071Z,7.37
2018-03-08T15:26:16.970Z,5.10
2018-03-08T15:28:45.184Z,5.33
2018-03-08T15:31:25.495Z,4.80
2018-03-08T15:33:54.213Z,7.13
2018-03-08T15:36:22.521Z,4.97
2018-03-08T15:39:12.467Z,5.40
2018-03-08T15:41:40.626Z,4.57
2018-03-08T15:44:13.928Z,5.60
2018-03-08T15:46:42.026Z,7.20
2018-03-08T15:54:58.032Z,4.67
2018-03-08T16:02:37.811Z,8.47
2018-03-08T16:05:06.988Z,8.17
2018-03-08T16:10:43.807Z,6.03
2018-03-08T16:13:12.667Z,4.43
2018-03-08T16:15:40.821Z,4.20
2018-03-08T16:18:09.261Z,4.90
2018-03-08T16:20:37.444Z,8.50
2018-03-08T16:23:05.615Z,4.73
2018-03-08T16:25:40.158Z,4.20
2018-03-08T16:28:08.379Z,4.43
2018-03-08T16:30:40.310Z,5.10
2018-03-08T16:33:10.470Z,5.10
2018-03-08T16:35:38.618Z,3.20
2018-03-08T16:38:07.515Z,3.97
2018-03-08T16:40:35.705Z,5.30
2018-03-08T16:43:03.831Z,4.20
2018-03-08T16:45:32.990Z,4.23
2018-03-08T16:48:02.896Z,4.00
2018-03-08T16:50:31.933Z,6.27
2018-03-08T16:53:00.012Z,3.90
2018-03-08T16:55:28.537Z,4.27
2018-03-08T16:57:56.639Z,3.33
2018-03-08T17:00:26.728Z,7.97
2018-03-08T17:02:55.489Z,7.83
2018-03-08T17:05:24.008Z,7.03
2018-03-08T17:07:52.196Z,5.43
2018-03-08T17:10:33.141Z,4.60
2018-03-08T17:13:08.340Z,6.60
2018-03-08T17:15:36.509Z,4.80
2018-03-08T17:18:07.693Z,5.60
2018-03-08T17:20:36.009Z,6.33
2018-03-08T17:23:04.273Z,6.23
2018-03-08T17:25:33.355Z,9.40
2018-03-08T17:28:01.652Z,5.00
2018-03-08T17:30:29.925Z,4.47
2018-03-08T17:32:58.088Z,5.53
2018-03-08T17:35:26.288Z,4.40
2018-03-08T17:37:54.427Z,4.80
2018-03-08T17:40:22.983Z,5.30
2018-03-08T17:42:51.184Z,4.50
2018-03-08T17:45:19.792Z,4.50
2018-03-08T17:47:47.893Z,4.40
2018-03-08T17:50:16.006Z,4.23
2018-03-08T17:52:44.103Z,5.97
2018-03-08T17:55:14.050Z,7.13
2018-03-08T17:57:42.269Z,5.67
2018-03-08T18:00:13.532Z,4.57
2018-03-08T18:02:41.640Z,5.77
2018-03-08T18:05:09.813Z,4.93
2018-03-08T18:07:38.784Z,5.40
2018-03-08T18:10:06.887Z,6.10
2018-03-08T18:12:35.011Z,7.20
2018-03-08T18:15:03.287Z,6.53
2018-03-08T18:17:32.758Z,5.27
2018-03-08T18:20:00.870Z,5.60
2018-03-08T18:22:29.040Z,6.70
2018-03-08T18:24:57.135Z,5.93
2018-03-08T18:27:25.329Z,6.60
2018-03-08T18:29:54.903Z,6.73
2018-03-08T18:32:23.049Z,6.57
2018-03-08T18:34:52.385Z,8.10
2018-03-08T18:37:20.611Z,6.97
2018-03-08T18:39:48.729Z,6.93
2018-03-08T18:42:17.588Z,6.70
2018-03-08T18:44:45.923Z,6.97
2018-03-08T18:47:14.042Z,6.80
2018-03-08T18:49:44.052Z,7.50
2018-03-08T18:52:13.150Z,6.40
2018-03-08T18:54:41.483Z,7.50
2018-03-08T18:57:10.763Z,6.50
2018-03-08T18:59:39.725Z,6.90
2018-03-08T19:02:08.323Z,7.30
2018-03-08T19:04:36.467Z,7.37
2018-03-08T19:07:04.654Z,8.23
2018-03-08T19:09:33.567Z,6.47
2018-03-08T19:12:01.755Z,7.13
2018-03-08T19:14:30.780Z,7.93
2018-03-08T19:16:58.893Z,9.63
2018-03-08T19:19:27.039Z,8.50
2018-03-08T19:21:55.168Z,8.70
2018-03-08T19:24:24.120Z,7.97
2018-03-08T19:26:56.804Z,8.60
2018-03-08T19:29:24.880Z,10.90
2018-03-08T19:31:52.992Z,10.47
2018-03-08T19:34:21.127Z,7.63
2018-03-08T19:36:49.250Z,8.80
2018-03-08T19:39:17.345Z,8.20
2018-03-08T19:41:47.361Z,7.90
2018-03-08T19:44:15.584Z,8.23
2018-03-08T19:46:44.201Z,6.80
2018-03-08T19:49:13.054Z,8.47
2018-03-08T19:51:41.189Z,6.50
2018-03-08T19:54:09.442Z,6.53
2018-03-08T19:56:37.672Z,6.23
2018-03-08T19:59:05.835Z,6.07
2018-03-08T20:01:33.933Z,5.93
2018-03-08T20:04:10.275Z,4.10
2018-03-08T20:06:38.423Z,3.87
2018-03-08T20:09:12.554Z,5.17
2018-03-08T20:11:40.878Z,3.10
2018-03-08T20:14:08.971Z,3.60
2018-03-08T20:16:37.149Z,3.23
2018-03-08T20:19:05.311Z,3.30
2018-03-08T20:21:34.344Z,3.70
2018-03-08T20:24:03.561Z,2.80
2018-03-08T20:26:32.482Z,5.20
2018-03-08T20:29:01.490Z,2.60
2018-03-08T20:31:30.387Z,2.07
2018-03-08T20:34:02.829Z,3.97
2018-03-08T20:36:31.303Z,8.40
2018-03-08T20:38:59.426Z,2.20
2018-03-08T20:41:27.558Z,2.43
2018-03-08T20:43:55.716Z,1.90
2018-03-08T20:46:24.661Z,2.47
2018-03-08T20:48:52.762Z,1.90
2018-03-08T20:51:20.875Z,2.33
2018-03-08T20:53:49.075Z,2.40
2018-03-08T20:56:17.968Z,2.40
2018-03-08T20:58:46.085Z,4.30
2018-03-08T21:01:14.208Z,2.40
2018-03-08T21:03:42.399Z,3.07
2018-03-08T21:06:10.597Z,2.40
2018-03-08T21:08:38.804Z,2.90
2018-03-08T21:11:07.069Z,2.60
2018-03-08T21:13:35.170Z,3.40
2018-03-08T21:16:03.382Z,2.87
2018-03-08T21:18:43.795Z,2.57
2018-03-08T21:21:12.098Z,2.50
2018-03-08T21:23:40.323Z,2.00
2018-03-08T21:26:08.796Z,2.07
2018-03-08T21:28:37.734Z,2.60
2018-03-08T21:31:05.985Z,2.80
2018-03-08T21:33:34.144Z,3.03
2018-03-08T21:36:02.206Z,2.50
2018-03-08T21:38:30.304Z,2.60
2018-03-08T21:40:58.512Z,2.90
2018-03-08T21:43:26.684Z,4.17
2018-03-08T21:45:56.354Z,4.43
2018-03-08T21:48:24.448Z,3.50
2018-03-08T21:50:52.635Z,3.47
2018-03-08T21:53:20.820Z,3.53
2018-03-08T21:55:49.000Z,3.40
2018-03-08T21:58:19.450Z,4.40
2018-03-08T22:00:47.642Z,5.50
2018-03-08T22:03:15.788Z,4.60
2018-03-08T22:05:44.686Z,4.57
2018-03-08T22:08:12.810Z,4.50
2018-03-08T22:10:40.997Z,5.17
2018-03-08T22:13:10.089Z,4.97
2018-03-08T22:15:38.177Z,4.73
2018-03-08T22:18:06.317Z,4.57
2018-03-08T22:20:34.400Z,5.80
2018-03-08T22:23:02.548Z,5.07
2018-03-08T22:25:31.899Z,5.80
2018-03-08T22:27:59.959Z,6.73
2018-03-08T22:30:40.135Z,6.33
2018-03-08T22:33:08.222Z,4.97
2018-03-08T22:35:36.340Z,7.30
2018-03-08T22:38:05.271Z,6.30
2018-03-08T22:43:06.911Z,6.03
2018-03-08T22:45:35.038Z,5.00
2018-03-08T22:48:03.118Z,6.53
2018-03-08T22:50:32.036Z,6.77
2018-03-08T22:53:00.159Z,6.80
2018-03-08T22:55:28.341Z,7.03
2018-03-08T22:57:56.465Z,7.40
2018-03-08T23:00:25.333Z,7.00
2018-03-08T23:03:01.103Z,8.43
2018-03-08T23:05:29.241Z,8.40
2018-03-08T23:07:57.364Z,8.70
2018-03-08T23:10:25.474Z,9.70
2018-03-08T23:12:53.566Z,9.30
2018-03-08T23:15:22.487Z,11.47
2018-03-08T23:17:50.624Z,13.57
2018-03-08T23:20:18.803Z,10.37
2018-03-08T23:22:47.530Z,12.33
2018-03-08T23:25:15.660Z,10.00
2018-03-08T23:27:43.817Z,12.20
2018-03-08T23:30:11.909Z,12.17
2018-03-08T23:32:50.362Z,11.20
2018-03-08T23:35:19.012Z,12.97
2018-03-08T23:38:06.220Z,10.40
2018-03-08T23:43:08.490Z,12.90
2018-03-08T23:45:36.701Z,12.90
2018-03-08T23:48:08.389Z,12.47
2018-03-08T23:50:36.563Z,13.10
2018-03-08T23:53:04.651Z,13.07
2018-03-08T23:55:32.764Z,12.90
2018-03-08T23:58:00.949Z,11.43
